createdAt,value
2023-03-01T00:02:06.866Z,-3.81
2023-03-01T00:07:34.424Z,-3.84
2023-03-01T00:13:01.573Z,-4.00
2023-03-01T00:18:29.234Z,-4.26
2023-03-01T00:23:56.891Z,-4.50
2023-03-01T00:29:25.867Z,-4.68
2023-03-01T00:34:56.827Z,-4.90
2023-03-01T00:40:35.880Z,-4.98
2023-03-01T00:46:06.191Z,-5.09
2023-03-01T00:51:33.185Z,-5.26
2023-03-01T00:57:00.399Z,-5.41
2023-03-01T01:02:27.479Z,-5.40
2023-03-01T01:07:54.468Z,-5.26
2023-03-01T01:13:21.607Z,-5.14
2023-03-01T01:18:49.684Z,-5.10
2023-03-01T01:24:18.615Z,-5.14
2023-03-01T01:29:46.596Z,-5.30
2023-03-01T01:35:14.706Z,-5.22
2023-03-01T01:40:50.293Z,-5.22
2023-03-01T01:46:21.491Z,-5.47
2023-03-01T01:51:50.625Z,-5.64
2023-03-01T01:57:31.007Z,-5.64
2023-03-01T02:03:09.576Z,-5.65
2023-03-01T02:08:39.010Z,-5.53
2023-03-01T02:14:07.299Z,-5.54
2023-03-01T02:19:55.252Z,-5.54
2023-03-01T02:25:57.914Z,-5.69
2023-03-01T02:31:44.845Z,-5.66
2023-03-01T02:37:16.104Z,-5.53
2023-03-01T02:42:57.327Z,-5.44
2023-03-01T02:48:24.734Z,-5.35
2023-03-01T02:54:20.603Z,-5.26
2023-03-01T02:59:47.869Z,-5.27
2023-03-01T03:05:21.294Z,-5.39
2023-03-01T03:10:52.329Z,-5.41
2023-03-01T03:16:20.997Z,-5.57
2023-03-01T03:21:48.715Z,-5.68
2023-03-01T03:27:15.753Z,-5.77
2023-03-01T03:32:53.438Z,-5.84
2023-03-01T03:38:23.203Z,-5.90
2023-03-01T03:43:50.816Z,-5.96
2023-03-01T03:49:17.882Z,-5.96
2023-03-01T03:54:44.823Z,-5.85
2023-03-01T04:00:13.993Z,-5.75
2023-03-01T04:05:43.583Z,-5.70
2023-03-01T04:11:31.930Z,-5.77
2023-03-01T04:16:59.138Z,-5.89
2023-03-01T04:22:30.967Z,-5.80
2023-03-01T04:27:58.206Z,-5.67
2023-03-01T04:33:26.772Z,-5.66
2023-03-01T04:38:54.981Z,-5.62
2023-03-01T04:44:24.085Z,-5.70
2023-03-01T04:49:52.214Z,-5.76
2023-03-01T04:55:20.684Z,-5.77
2023-03-01T05:00:47.952Z,-5.76
2023-03-01T05:06:15.891Z,-5.64
2023-03-01T05:11:43.678Z,-5.56
2023-03-01T05:17:11.253Z,-5.61
2023-03-01T05:22:39.772Z,-5.68
2023-03-01T05:28:07.826Z,-5.66
2023-03-01T05:33:35.591Z,-5.58
2023-03-01T05:39:04.802Z,-5.49
2023-03-01T05:44:32.369Z,-5.47
2023-03-01T05:50:00.123Z,-5.18
2023-03-01T05:55:29.011Z,-4.87
2023-03-01T06:00:57.308Z,-4.34
2023-03-01T06:06:27.062Z,-3.62
2023-03-01T06:11:58.523Z,-2.40
2023-03-01T06:17:30.024Z,-1.17
2023-03-01T06:22:57.579Z,-0.14
2023-03-01T06:28:25.484Z,1.03
2023-03-01T06:33:53.235Z,2.47
2023-03-01T06:39:20.314Z,4.01
2023-03-01T06:44:47.417Z,5.25
2023-03-01T06:50:16.373Z,6.10
2023-03-01T06:55:43.372Z,7.26
2023-03-01T07:01:11.170Z,8.14
2023-03-01T07:06:38.649Z,9.30
2023-03-01T07:12:07.013Z,10.54
2023-03-01T07:17:34.599Z,11.47
2023-03-01T07:23:02.648Z,12.51
2023-03-01T07:28:30.522Z,13.06
2023-03-01T07:33:57.920Z,13.12
2023-03-01T07:39:25.798Z,13.56
2023-03-01T07:44:53.573Z,14.21
2023-03-01T07:50:22.402Z,15.19
2023-03-01T07:55:49.599Z,15.71
2023-03-01T08:01:18.460Z,16.20
2023-03-01T08:06:45.792Z,16.80
2023-03-01T08:12:13.496Z,17.04
2023-03-01T08:17:40.757Z,17.57
2023-03-01T08:23:08.256Z,18.10
2023-03-01T08:28:35.862Z,17.83
2023-03-01T08:34:07.806Z,18.06
2023-03-01T08:39:35.591Z,18.22
2023-03-01T08:45:02.676Z,18.11
2023-03-01T08:50:30.808Z,18.01
2023-03-01T08:56:02.336Z,17.24
2023-03-01T09:01:30.535Z,16.50
2023-03-01T09:06:57.947Z,15.91
2023-03-01T09:12:26.412Z,15.14
2023-03-01T09:17:53.689Z,14.50
2023-03-01T09:23:20.940Z,13.77
2023-03-01T09:28:49.946Z,13.32
2023-03-01T09:34:24.269Z,13.13
2023-03-01T09:39:51.632Z,12.60
2023-03-01T09:45:46.863Z,12.34
2023-03-01T09:51:20.718Z,12.64
2023-03-01T09:57:14.900Z,12.16
2023-03-01T10:03:01.760Z,11.36
2023-03-01T10:08:37.528Z,11.15
2023-03-01T10:14:21.582Z,10.85
2023-03-01T10:19:49.182Z,9.87
2023-03-01T10:25:18.890Z,9.22
2023-03-01T10:30:46.608Z,8.60
2023-03-01T10:36:14.436Z,8.38
2023-03-01T10:41:55.531Z,8.42
2023-03-01T10:47:26.325Z,8.24
2023-03-01T10:53:03.031Z,7.71
2023-03-01T10:58:31.433Z,7.29
2023-03-01T11:04:08.209Z,7.30
2023-03-01T11:09:39.731Z,7.20
2023-03-01T11:15:25.912Z,7.04
2023-03-01T11:20:57.005Z,6.99
2023-03-01T11:26:24.812Z,6.61
2023-03-01T11:31:57.796Z,6.30
2023-03-01T11:37:37.781Z,6.11
2023-03-01T11:43:14.123Z,6.27
2023-03-01T11:48:50.181Z,5.98
2023-03-01T11:54:42.319Z,5.95
2023-03-01T12:00:39.979Z,5.91
2023-03-01T12:06:25.267Z,6.00
2023-03-01T12:12:19.072Z,5.95
2023-03-01T12:18:01.509Z,5.93
2023-03-01T12:24:07.561Z,5.81
2023-03-01T12:29:52.690Z,5.74
2023-03-01T12:35:41.174Z,5.96
2023-03-01T12:41:08.131Z,5.89
2023-03-01T12:47:00.452Z,6.17
2023-03-01T12:52:43.676Z,6.31
2023-03-01T12:58:47.483Z,6.29
2023-03-01T13:04:28.170Z,6.43
2023-03-01T13:10:24.214Z,6.40
2023-03-01T13:15:52.739Z,6.44
2023-03-01T13:21:32.277Z,6.19
2023-03-01T13:27:08.101Z,6.28
2023-03-01T13:32:44.780Z,6.23
2023-03-01T13:38:47.894Z,6.08
2023-03-01T13:44:37.393Z,6.21
2023-03-01T13:50:05.813Z,6.14
2023-03-01T13:55:46.165Z,6.14
2023-03-01T14:01:27.170Z,6.04
2023-03-01T14:07:20.608Z,6.10
2023-03-01T14:13:11.415Z,6.12
2023-03-01T14:19:07.438Z,6.05
2023-03-01T14:24:40.991Z,6.02
2023-03-01T14:30:19.020Z,5.94
2023-03-01T14:35:58.733Z,5.97
2023-03-01T14:41:30.048Z,5.99
2023-03-01T14:47:00.912Z,5.93
2023-03-01T14:52:51.132Z,5.76
2023-03-01T14:58:22.795Z,5.79
2023-03-01T15:03:52.487Z,5.75
2023-03-01T15:09:20.506Z,5.67
2023-03-01T15:15:02.513Z,5.59
2023-03-01T15:20:36.485Z,5.51
2023-03-01T15:26:04.745Z,5.39
2023-03-01T15:31:40.079Z,5.26
2023-03-01T15:37:48.937Z,5.15
2023-03-01T15:43:39.297Z,4.96
2023-03-01T15:49:53.981Z,4.79
2023-03-01T15:55:31.258Z,4.60
2023-03-01T16:01:02.482Z,4.40
2023-03-01T16:06:31.191Z,4.14
2023-03-01T16:12:03.314Z,3.99
2023-03-01T16:17:33.818Z,3.88
2023-03-01T16:23:03.444Z,3.72
2023-03-01T16:28:33.404Z,3.55
2023-03-01T16:34:01.345Z,3.31
2023-03-01T16:39:29.904Z,3.07
2023-03-01T16:44:57.591Z,2.84
2023-03-01T16:50:24.762Z,2.67
2023-03-01T16:56:01.660Z,2.48
2023-03-01T17:01:38.710Z,2.32
2023-03-01T17:07:06.978Z,2.15
2023-03-01T17:12:35.986Z,1.98
2023-03-01T17:18:04.126Z,1.84
2023-03-01T17:23:33.840Z,1.79
2023-03-01T17:29:03.102Z,1.59
2023-03-01T17:34:33.092Z,1.41
2023-03-01T17:40:00.207Z,1.25
2023-03-01T17:45:28.584Z,1.13
2023-03-01T17:50:56.867Z,1.05
2023-03-01T17:56:25.310Z,1.01
2023-03-01T18:01:53.756Z,0.90
2023-03-01T18:07:20.901Z,0.57
2023-03-01T18:12:48.269Z,0.03
2023-03-01T18:18:16.020Z,-0.38
2023-03-01T18:23:43.327Z,-0.65
2023-03-01T18:29:11.503Z,-0.85
2023-03-01T18:34:39.702Z,-0.98
2023-03-01T18:40:08.430Z,-1.04
2023-03-01T18:45:36.500Z,-0.97
2023-03-01T18:51:19.395Z,-0.90
2023-03-01T18:56:47.873Z,-1.09
2023-03-01T19:02:16.198Z,-1.34
2023-03-01T19:07:43.476Z,-1.58
2023-03-01T19:13:11.453Z,-1.72
2023-03-01T19:18:41.546Z,-1.98
2023-03-01T19:24:12.056Z,-2.14
2023-03-01T19:29:39.451Z,-2.16
2023-03-01T19:35:08.279Z,-2.13
2023-03-01T19:40:36.703Z,-2.06
2023-03-01T19:46:04.718Z,-2.14
2023-03-01T19:51:39.166Z,-2.37
2023-03-01T19:57:06.476Z,-2.50
2023-03-01T20:02:34.716Z,-2.55
2023-03-01T20:08:04.665Z,-2.68
2023-03-01T20:13:33.493Z,-2.80
2023-03-01T20:19:01.288Z,-2.85
2023-03-01T20:24:29.098Z,-2.90
2023-03-01T20:29:56.307Z,-2.93
2023-03-01T20:35:24.727Z,-2.95
2023-03-01T20:40:58.273Z,-3.02
2023-03-01T20:46:27.060Z,-3.05
2023-03-01T20:51:54.876Z,-3.14
2023-03-01T20:57:24.890Z,-3.26
2023-03-01T21:02:53.778Z,-3.37
2023-03-01T21:08:21.967Z,-3.40
2023-03-01T21:13:51.029Z,-3.32
2023-03-01T21:19:20.764Z,-3.14
2023-03-01T21:24:52.210Z,-2.94
2023-03-01T21:30:20.965Z,-2.96
2023-03-01T21:35:49.246Z,-3.21
2023-03-01T21:41:23.278Z,-3.38
2023-03-01T21:46:51.068Z,-3.48
2023-03-01T21:52:18.904Z,-3.41
2023-03-01T21:57:48.409Z,-3.49
2023-03-01T22:03:16.871Z,-3.59
2023-03-01T22:08:49.787Z,-3.70
2023-03-01T22:14:18.787Z,-3.75
2023-03-01T22:19:46.608Z,-3.49
2023-03-01T22:25:13.814Z,-3.32
2023-03-01T22:30:40.584Z,-3.38
2023-03-01T22:36:08.345Z,-3.46
2023-03-01T22:41:41.559Z,-3.56
2023-03-01T22:47:08.641Z,-3.67
2023-03-01T22:52:36.233Z,-3.83
2023-03-01T22:58:04.065Z,-4.00
2023-03-01T23:03:31.986Z,-4.11
2023-03-01T23:09:02.789Z,-4.13
2023-03-01T23:14:32.128Z,-4.19
2023-03-01T23:20:00.298Z,-4.36
2023-03-01T23:25:27.770Z,-4.47
2023-03-01T23:31:00.858Z,-4.59
2023-03-01T23:36:28.923Z,-4.61
2023-03-01T23:41:57.337Z,-4.64
2023-03-01T23:47:24.961Z,-4.66
2023-03-01T23:52:52.234Z,-4.52
2023-03-01T23:58:20.425Z,-4.30
